Terminal Aerodrome Forecast
Issued by NWS

Home | Current Version | Previous Version | Text Only | Print | Product List | Glossary On
Versions: 1 2 3 4 5 6 7 8 9 10 11 12 13 14 15 16 17
000
FTUS43 KMPX 211400 AAA
TAFAXN
TAF AMD
KAXN 211452Z 2115/2212 17014KT 1 1/2SM BR OVC004
      TEMPO 2115/2118 1/2SM FG VV002
     FM212100 14013KT 6SM BR OVC007
     FM220300 13015KT 3SM -DZ BR OVC004=

USA.gov is the U.S. government's official web portal to all federal, state and local government web resources and services.